Time;durP1;ratioP1;P1;durP2;ratioP2;P2;SDS_P1;SDS_P2;PMS_P1;PMS_P2;Temp;Humidity;BMP_temperature;BMP_pressure;BME280_temperature;BME280_humidity;BME280_pressure;Samples;Min_cycle;Max_cycle;Signal;HPM_P1;HPM_P2
2021/11/11 00:00:07;;;;;;;;;72.00;58.67;;;;;;;;5090515;27;45467;-86
2021/11/11 00:02:33;;;;;;;;;63.25;53.00;;;;;;;;5088462;27;46060;-86
2021/11/11 00:04:58;;;;;;;;;75.33;58.00;;;;;;;;5089758;27;48552;-86
2021/11/11 00:07:24;;;;;;;;;67.75;56.00;;;;;;;;5088726;27;45626;-86
2021/11/11 00:09:49;;;;;;;;;67.33;54.67;;;;;;;;5089534;27;45549;-85
2021/11/11 00:12:14;;;;;;;;;67.00;51.00;;;;;;;;5089748;27;45677;-85
2021/11/11 00:14:39;;;;;;;;;67.67;56.00;;;;;;;;5089052;27;48068;-86
2021/11/11 00:17:05;;;;;;;;;72.00;56.33;;;;;;;;5088688;27;45797;-86
2021/11/11 00:19:30;;;;;;;;;66.00;52.67;;;;;;;;5090358;27;45752;-85
2021/11/11 00:21:55;;;;;;;;;70.67;54.67;;;;;;;;5090124;27;45643;-85
2021/11/11 00:24:20;;;;;;;;;63.00;52.67;;;;;;;;5089131;27;46930;-87
2021/11/11 00:26:46;;;;;;;;;66.00;54.33;;;;;;;;5092109;27;45573;-87
2021/11/11 00:29:11;;;;;;;;;67.00;55.00;;;;;;;;5090099;27;46557;-86
2021/11/11 00:31:37;;;;;;;;;66.00;53.00;;;;;;;;5090229;27;45445;-87
2021/11/11 00:34:03;;;;;;;;;61.50;50.50;;;;;;;;5088871;27;47076;-87
2021/11/11 00:36:28;;;;;;;;;67.00;53.25;;;;;;;;5091003;27;45614;-85
2021/11/11 00:38:54;;;;;;;;;60.50;49.00;;;;;;;;5091879;27;45417;-87
2021/11/11 00:41:19;;;;;;;;;61.67;49.00;;;;;;;;5088102;27;45346;-86
2021/11/11 00:43:44;;;;;;;;;65.00;51.67;;;;;;;;5088920;27;47264;-87
2021/11/11 00:46:09;;;;;;;;;60.33;50.00;;;;;;;;5090796;27;45838;-86
2021/11/11 00:48:35;;;;;;;;;69.67;54.67;;;;;;;;5089295;27;45618;-86
2021/11/11 00:51:00;;;;;;;;;65.00;53.75;;;;;;;;5090667;27;45352;-86
2021/11/11 00:53:25;;;;;;;;;63.33;52.67;;;;;;;;5094361;27;45492;-85
2021/11/11 00:55:51;;;;;;;;;65.33;51.67;;;;;;;;5097197;27;45483;-86
2021/11/11 00:58:16;;;;;;;;;64.00;52.33;;;;;;;;5093402;27;45260;-86
2021/11/11 01:00:41;;;;;;;;;62.67;50.67;;;;;;;;5096099;27;45691;-86
2021/11/11 01:03:07;;;;;;;;;62.50;51.00;;;;;;;;5088009;27;46975;-86
2021/11/11 01:05:33;;;;;;;;;60.50;48.25;;;;;;;;5091830;27;45749;-86
2021/11/11 01:07:58;;;;;;;;;61.50;50.25;;;;;;;;5090211;27;45397;-86
2021/11/11 01:10:24;;;;;;;;;66.33;51.33;;;;;;;;5087937;27;45537;-86
2021/11/11 01:12:50;;;;;;;;;64.00;50.00;;;;;;;;5091841;27;47180;-86
2021/11/11 01:15:17;;;;;;;;;62.50;51.75;;;;;;;;5098033;27;45426;-86
2021/11/11 01:17:43;;;;;;;;;64.50;54.00;;;;;;;;5089560;27;45288;-86
2021/11/11 01:20:09;;;;;;;;;71.75;54.50;;;;;;;;5088860;27;45533;-86
2021/11/11 01:22:35;;;;;;;;;66.50;55.00;;;;;;;;5090253;27;48646;-86
2021/11/11 01:25:00;;;;;;;;;71.00;52.25;;;;;;;;5089548;27;45635;-86
2021/11/11 01:27:26;;;;;;;;;66.33;54.00;;;;;;;;5088027;27;45501;-85
2021/11/11 01:29:51;;;;;;;;;63.67;51.33;;;;;;;;5088331;27;45480;-86
2021/11/11 01:32:16;;;;;;;;;67.00;54.00;;;;;;;;5089329;27;46438;-86
2021/11/11 01:34:41;;;;;;;;;60.00;48.00;;;;;;;;5090008;27;45526;-86
2021/11/11 01:37:07;;;;;;;;;64.33;53.67;;;;;;;;5088289;27;45394;-86
2021/11/11 01:39:32;;;;;;;;;70.00;55.67;;;;;;;;5087734;27;45538;-86
2021/11/11 01:41:58;;;;;;;;;67.00;55.00;;;;;;;;5089787;27;47907;-86
2021/11/11 01:44:23;;;;;;;;;60.50;50.00;;;;;;;;5090647;27;45469;-86
2021/11/11 01:46:49;;;;;;;;;65.33;54.67;;;;;;;;5090740;27;45467;-86
2021/11/11 01:49:14;;;;;;;;;60.00;51.00;;;;;;;;5093385;27;45971;-86
2021/11/11 01:51:41;;;;;;;;;66.75;55.25;;;;;;;;5100336;27;46558;-86
2021/11/11 01:54:06;;;;;;;;;64.75;51.75;;;;;;;;5097189;27;45528;-86
2021/11/11 01:56:31;;;;;;;;;68.00;55.75;;;;;;;;5092909;27;45625;-86
2021/11/11 01:58:57;;;;;;;;;64.00;53.00;;;;;;;;5092508;27;45464;-86
2021/11/11 02:01:22;;;;;;;;;71.67;53.67;;;;;;;;5091945;27;48137;-86
2021/11/11 02:03:47;;;;;;;;;69.25;54.50;;;;;;;;5091761;27;45602;-87
2021/11/11 02:06:13;;;;;;;;;67.25;55.00;;;;;;;;5091321;27;45294;-86
2021/11/11 02:08:38;;;;;;;;;67.00;54.00;;;;;;;;5094825;27;45353;-84
2021/11/11 02:11:06;;;;;;;;;66.25;54.25;;;;;;;;5094288;27;45553;-86
2021/11/11 02:13:31;;;;;;;;;72.75;57.50;;;;;;;;5092967;27;45482;-84
2021/11/11 02:15:57;;;;;;;;;63.25;52.00;;;;;;;;5090987;27;45487;-86
2021/11/11 02:18:22;;;;;;;;;66.33;54.00;;;;;;;;5092480;27;45625;-84
2021/11/11 02:20:47;;;;;;;;;42.00;39.33;;;;;;;;5091461;27;48493;-86
2021/11/11 02:23:15;;;;;;;;;65.75;53.50;;;;;;;;5091604;27;45437;-86
2021/11/11 02:25:41;;;;;;;;;69.50;55.25;;;;;;;;5092764;27;45495;-86
2021/11/11 02:28:08;;;;;;;;;64.00;53.00;;;;;;;;5091043;27;45577;-86
2021/11/11 02:30:34;;;;;;;;;67.25;53.00;;;;;;;;5093395;27;45526;-84
2021/11/11 02:33:00;;;;;;;;;66.50;53.25;;;;;;;;5093371;27;45434;-86
2021/11/11 02:35:25;;;;;;;;;63.00;50.33;;;;;;;;5096034;27;45357;-86
2021/11/11 02:37:51;;;;;;;;;67.33;54.33;;;;;;;;5090534;27;45365;-84
2021/11/11 02:40:21;;;;;;;;;66.00;53.25;;;;;;;;5090869;27;47798;-85
2021/11/11 02:42:47;;;;;;;;;61.50;51.00;;;;;;;;5090922;27;45521;-86
2021/11/11 02:45:15;;;;;;;;;64.00;53.75;;;;;;;;5090339;27;45539;-86
2021/11/11 02:47:40;;;;;;;;;68.25;53.50;;;;;;;;5092016;27;45488;-86
2021/11/11 02:50:06;;;;;;;;;65.50;53.75;;;;;;;;5093610;27;47177;-86
2021/11/11 02:52:31;;;;;;;;;67.50;53.75;;;;;;;;5090122;27;45670;-86
2021/11/11 02:54:57;;;;;;;;;67.25;53.75;;;;;;;;5090458;27;45828;-86
2021/11/11 02:57:32;;;;;;;;;67.25;54.75;;;;;;;;5091706;27;45552;-86
2021/11/11 02:59:59;;;;;;;;;72.00;55.75;;;;;;;;5089875;27;48107;-86
2021/11/11 03:02:26;;;;;;;;;66.50;52.75;;;;;;;;5090262;27;45779;-86
2021/11/11 03:04:51;;;;;;;;;67.00;53.00;;;;;;;;5092216;27;45449;-86
2021/11/11 03:07:17;;;;;;;;;65.75;54.25;;;;;;;;5092057;27;45422;-86
2021/11/11 03:09:43;;;;;;;;;65.00;52.00;;;;;;;;5092658;27;47549;-86
2021/11/11 03:12:08;;;;;;;;;71.25;57.00;;;;;;;;5090110;27;45322;-86
2021/11/11 03:14:33;;;;;;;;;65.67;53.67;;;;;;;;5091024;27;45408;-86
2021/11/11 03:16:59;;;;;;;;;63.33;53.33;;;;;;;;5090465;27;45409;-86
2021/11/11 03:19:25;;;;;;;;;68.50;53.50;;;;;;;;5090097;27;48178;-86
2021/11/11 03:21:50;;;;;;;;;73.75;56.50;;;;;;;;5090426;27;45680;-86
2021/11/11 03:24:15;;;;;;;;;70.33;57.67;;;;;;;;5089745;27;45772;-86
2021/11/11 03:26:41;;;;;;;;;64.33;53.67;;;;;;;;5090279;27;45569;-85
2021/11/11 03:29:06;;;;;;;;;73.25;56.75;;;;;;;;5089507;27;47423;-85
2021/11/11 03:31:31;;;;;;;;;74.25;55.75;;;;;;;;5088764;27;45650;-85
2021/11/11 03:33:57;;;;;;;;;72.67;58.33;;;;;;;;5090466;27;45324;-86
2021/11/11 03:36:22;;;;;;;;;75.00;59.00;;;;;;;;5089655;27;45611;-86
2021/11/11 03:38:47;;;;;;;;;62.33;49.33;;;;;;;;5090265;27;47027;-86
2021/11/11 03:41:12;;;;;;;;;70.33;56.00;;;;;;;;5089997;27;45441;-85
2021/11/11 03:43:38;;;;;;;;;69.25;57.50;;;;;;;;5091016;27;45452;-86
2021/11/11 03:46:03;;;;;;;;;73.00;57.33;;;;;;;;5089696;27;45508;-86
2021/11/11 03:48:28;;;;;;;;;78.00;61.50;;;;;;;;5090512;27;46331;-86
2021/11/11 03:50:54;;;;;;;;;67.67;55.67;;;;;;;;5090074;27;45602;-86
2021/11/11 03:53:19;;;;;;;;;71.33;57.67;;;;;;;;5091383;27;45422;-86
2021/11/11 03:55:44;;;;;;;;;71.33;56.00;;;;;;;;5089499;27;45525;-85
2021/11/11 03:58:15;;;;;;;;;70.00;56.75;;;;;;;;5089684;27;45971;-85
2021/11/11 04:00:40;;;;;;;;;73.50;56.50;;;;;;;;5090942;27;45602;-86
2021/11/11 04:03:05;;;;;;;;;72.33;57.67;;;;;;;;5092614;27;45601;-85
2021/11/11 04:05:30;;;;;;;;;68.33;54.67;;;;;;;;5100501;27;45284;-86
2021/11/11 04:07:56;;;;;;;;;68.67;55.67;;;;;;;;5107869;27;47144;-86
2021/11/11 04:10:21;;;;;;;;;70.00;58.00;;;;;;;;5105425;27;45241;-86
2021/11/11 04:12:47;;;;;;;;;72.00;57.75;;;;;;;;5095397;27;45586;-84
2021/11/11 04:15:12;;;;;;;;;79.33;61.33;;;;;;;;5096308;27;45548;-85
2021/11/11 04:17:37;;;;;;;;;66.67;56.00;;;;;;;;5107390;27;47034;-85
2021/11/11 04:20:03;;;;;;;;;74.25;59.00;;;;;;;;5108582;27;45551;-85
2021/11/11 04:22:28;;;;;;;;;71.00;57.75;;;;;;;;5109255;27;45183;-84
2021/11/11 04:24:56;;;;;;;;;78.67;61.00;;;;;;;;5107811;27;45228;-85
2021/11/11 04:27:30;;;;;;;;;74.75;61.00;;;;;;;;5092145;27;46342;-84
2021/11/11 04:30:07;;;;;;;;;74.00;60.50;;;;;;;;5090902;27;45617;-85
2021/11/11 04:32:32;;;;;;;;;73.25;58.50;;;;;;;;5090149;27;45506;-84
2021/11/11 04:34:59;;;;;;;;;71.67;58.33;;;;;;;;5090999;27;45723;-84
2021/11/11 04:37:28;;;;;;;;;81.25;61.50;;;;;;;;5088399;27;47253;-86
2021/11/11 05:02:09;;;;;;;;;78.00;60.75;;;;;;;;5090018;27;45568;-86
2021/11/11 05:04:34;;;;;;;;;75.00;60.50;;;;;;;;5088680;27;45385;-86
2021/11/11 05:07:00;;;;;;;;;73.25;59.25;;;;;;;;5090289;27;45462;-84
2021/11/11 05:09:25;;;;;;;;;82.67;63.00;;;;;;;;5089880;27;46172;-85
2021/11/11 05:11:50;;;;;;;;;77.50;61.00;;;;;;;;5089163;27;45777;-84
2021/11/11 05:14:16;;;;;;;;;72.33;60.33;;;;;;;;5089643;27;45479;-84
2021/11/11 05:16:42;;;;;;;;;77.75;59.50;;;;;;;;5088203;27;45537;-85
2021/11/11 05:19:07;;;;;;;;;75.00;61.25;;;;;;;;5088288;27;47243;-85
2021/11/11 05:21:32;;;;;;;;;77.33;61.00;;;;;;;;5088555;27;45735;-85
2021/11/11 05:23:58;;;;;;;;;78.33;63.00;;;;;;;;5092812;27;45456;-86
2021/11/11 05:26:24;;;;;;;;;76.25;61.00;;;;;;;;5093647;27;45749;-86
2021/11/11 05:28:50;;;;;;;;;79.50;62.50;;;;;;;;5093546;27;45495;-86
2021/11/11 05:31:15;;;;;;;;;78.67;63.33;;;;;;;;5091370;27;45565;-86
2021/11/11 05:33:40;;;;;;;;;75.50;61.50;;;;;;;;5085240;27;45409;-85
2021/11/11 05:36:06;;;;;;;;;73.00;60.00;;;;;;;;5072543;27;45437;-86
2021/11/11 05:38:31;;;;;;;;;74.67;60.00;;;;;;;;5071435;27;47187;-85
2021/11/11 05:40:56;;;;;;;;;72.67;59.00;;;;;;;;5072307;27;45354;-85
2021/11/11 05:43:21;;;;;;;;;72.00;57.00;;;;;;;;5071396;27;45584;-86
2021/11/11 05:45:47;;;;;;;;;78.00;62.67;;;;;;;;5071301;27;45526;-86
2021/11/11 05:48:12;;;;;;;;;74.67;60.67;;;;;;;;5070855;27;48207;-85
2021/11/11 05:50:38;;;;;;;;;74.00;57.00;;;;;;;;5072667;27;45500;-86
2021/11/11 05:53:03;;;;;;;;;76.00;60.50;;;;;;;;5073183;27;45354;-85
2021/11/11 05:55:28;;;;;;;;;73.00;58.75;;;;;;;;5072612;27;45479;-86
2021/11/11 05:57:54;;;;;;;;;72.00;59.00;;;;;;;;5071219;27;48149;-85
2021/11/11 06:00:20;;;;;;;;;71.00;56.67;;;;;;;;5070889;27;45462;-85
2021/11/11 06:02:45;;;;;;;;;72.50;58.25;;;;;;;;5072638;27;45489;-86
2021/11/11 06:05:11;;;;;;;;;68.75;57.00;;;;;;;;5070518;27;45466;-85
2021/11/11 06:07:36;;;;;;;;;68.25;57.00;;;;;;;;5071192;27;47252;-85
2021/11/11 06:10:03;;;;;;;;;76.00;60.00;;;;;;;;5071433;27;45386;-86
2021/11/11 06:12:28;;;;;;;;;67.75;56.25;;;;;;;;5070834;27;45692;-85
2021/11/11 06:14:53;;;;;;;;;67.67;56.67;;;;;;;;5071420;27;45703;-85
2021/11/11 06:17:18;;;;;;;;;74.67;58.33;;;;;;;;5071046;27;47978;-85
2021/11/11 06:19:45;;;;;;;;;73.00;57.00;;;;;;;;5071073;27;45834;-85
2021/11/11 06:22:11;;;;;;;;;65.25;54.50;;;;;;;;5070728;27;45464;-84
2021/11/11 06:24:36;;;;;;;;;72.00;57.67;;;;;;;;5070840;27;45474;-84
2021/11/11 06:27:01;;;;;;;;;68.67;54.67;;;;;;;;5072558;27;46556;-84
2021/11/11 06:29:27;;;;;;;;;71.75;56.25;;;;;;;;5070623;27;45462;-84
2021/11/11 06:31:52;;;;;;;;;71.00;55.33;;;;;;;;5072518;27;45666;-86
2021/11/11 06:34:17;;;;;;;;;60.75;50.75;;;;;;;;5082042;27;45556;-86
2021/11/11 06:36:43;;;;;;;;;67.00;52.33;;;;;;;;5090672;27;47953;-86
2021/11/11 06:39:08;;;;;;;;;66.75;52.25;;;;;;;;5090698;27;45454;-85
2021/11/11 06:41:34;;;;;;;;;58.50;47.25;;;;;;;;5092684;27;45410;-86
2021/11/11 06:43:59;;;;;;;;;60.75;49.00;;;;;;;;5090763;27;45556;-85
2021/11/11 06:46:24;;;;;;;;;63.67;50.67;;;;;;;;5091360;27;46657;-84
2021/11/11 06:48:50;;;;;;;;;60.75;49.75;;;;;;;;5091573;27;45508;-86
2021/11/11 06:51:15;;;;;;;;;60.33;49.00;;;;;;;;5090412;27;45607;-86
2021/11/11 06:53:41;;;;;;;;;57.50;48.25;;;;;;;;5091153;27;45723;-85
2021/11/11 06:56:06;;;;;;;;;57.00;48.00;;;;;;;;5091677;27;46444;-85
2021/11/11 06:58:32;;;;;;;;;5.75;0.00;;;;;;;;5090364;27;45582;-85
2021/11/11 07:00:58;;;;;;;;;62.00;50.00;;;;;;;;5091007;27;45621;-85
2021/11/11 07:03:23;;;;;;;;;63.25;50.75;;;;;;;;5090245;27;45567;-84
2021/11/11 07:05:52;;;;;;;;;55.25;45.50;;;;;;;;5090789;27;47346;-86
2021/11/11 07:08:17;;;;;;;;;64.50;52.00;;;;;;;;5090465;27;45768;-85
2021/11/11 07:10:47;;;;;;;;;59.00;48.00;;;;;;;;5092322;27;45802;-85
2021/11/11 07:13:12;;;;;;;;;60.75;50.50;;;;;;;;5090193;27;45545;-86
2021/11/11 07:15:38;;;;;;;;;63.50;50.00;;;;;;;;5090373;27;47361;-86
2021/11/11 07:18:04;;;;;;;;;62.25;49.75;;;;;;;;5090390;27;45762;-85
2021/11/11 07:20:29;;;;;;;;;56.50;47.00;;;;;;;;5089955;27;45427;-85
2021/11/11 07:22:59;;;;;;;;;57.00;47.33;;;;;;;;5092138;27;45476;-86
2021/11/11 07:25:25;;;;;;;;;62.75;50.75;;;;;;;;5090020;27;47072;-85
2021/11/11 07:27:50;;;;;;;;;63.75;49.75;;;;;;;;5090381;27;45659;-86
2021/11/11 07:30:16;;;;;;;;;54.67;46.33;;;;;;;;5091571;27;45541;-85
2021/11/11 07:32:41;;;;;;;;;58.25;47.75;;;;;;;;5090690;27;45671;-86
2021/11/11 07:35:10;;;;;;;;;47.33;42.33;;;;;;;;5090829;27;45391;-85
2021/11/11 07:37:39;;;;;;;;;50.25;42.50;;;;;;;;5090799;27;45744;-86
2021/11/11 07:40:09;;;;;;;;;47.00;42.25;;;;;;;;5090799;27;45540;-86
2021/11/11 07:42:36;;;;;;;;;54.00;43.50;;;;;;;;5108694;27;45584;-85
2021/11/11 07:45:01;;;;;;;;;49.00;43.75;;;;;;;;5112575;27;47561;-84
2021/11/11 07:47:27;;;;;;;;;57.25;45.25;;;;;;;;5110710;27;45181;-85
2021/11/11 07:49:57;;;;;;;;;57.75;47.00;;;;;;;;5113398;27;45599;-85
2021/11/11 07:52:23;;;;;;;;;51.75;45.25;;;;;;;;5110316;27;45333;-84
2021/11/11 07:54:48;;;;;;;;;54.00;44.25;;;;;;;;5113669;27;45411;-85
2021/11/11 07:57:14;;;;;;;;;58.00;47.00;;;;;;;;5113749;27;45190;-84
2021/11/11 07:59:41;;;;;;;;;61.00;48.00;;;;;;;;5093528;27;45484;-83
2021/11/11 08:02:06;;;;;;;;;63.50;52.50;;;;;;;;5091850;27;45405;-85
2021/11/11 08:04:31;;;;;;;;;60.67;49.67;;;;;;;;5091089;27;47540;-85
2021/11/11 08:06:57;;;;;;;;;60.00;49.00;;;;;;;;5091108;27;45397;-85
2021/11/11 08:09:22;;;;;;;;;63.00;51.33;;;;;;;;5091020;27;45479;-85
2021/11/11 08:11:49;;;;;;;;;63.00;51.25;;;;;;;;5091305;27;45621;-83
2021/11/11 08:14:14;;;;;;;;;66.25;51.75;;;;;;;;5091286;27;45527;-85
2021/11/11 08:16:40;;;;;;;;;66.00;52.00;;;;;;;;5089851;27;45549;-86
2021/11/11 08:19:05;;;;;;;;;65.33;51.00;;;;;;;;5089102;27;45713;-85
2021/11/11 08:21:30;;;;;;;;;65.33;53.67;;;;;;;;5089314;27;45524;-86
2021/11/11 08:23:55;;;;;;;;;67.67;53.00;;;;;;;;5090793;27;45441;-86
2021/11/11 08:26:21;;;;;;;;;66.33;54.67;;;;;;;;5088736;27;45464;-86
2021/11/11 08:28:46;;;;;;;;;65.67;53.67;;;;;;;;5089852;27;45415;-86
2021/11/11 08:31:11;;;;;;;;;62.00;49.33;;;;;;;;5089044;27;45752;-85
2021/11/11 08:33:36;;;;;;;;;58.00;47.33;;;;;;;;5082443;27;48062;-86
2021/11/11 08:36:02;;;;;;;;;66.33;54.67;;;;;;;;5069270;28;45602;-86
2021/11/11 08:38:29;;;;;;;;;68.50;54.75;;;;;;;;5068911;28;45511;-85
2021/11/11 08:40:55;;;;;;;;;71.50;56.00;;;;;;;;5068787;28;45590;-86
2021/11/11 08:43:21;;;;;;;;;63.50;53.00;;;;;;;;5068276;28;46037;-86
2021/11/11 08:45:46;;;;;;;;;70.50;54.75;;;;;;;;5068841;28;45733;-85
2021/11/11 08:48:11;;;;;;;;;61.75;50.00;;;;;;;;5068109;28;45515;-86
2021/11/11 08:50:37;;;;;;;;;61.25;51.00;;;;;;;;5068947;28;45906;-85
2021/11/11 08:53:04;;;;;;;;;65.25;53.25;;;;;;;;5068609;28;47705;-86
2021/11/11 08:55:33;;;;;;;;;63.25;53.00;;;;;;;;5068084;28;45770;-86
2021/11/11 08:57:59;;;;;;;;;67.50;57.00;;;;;;;;5068065;28;45456;-85
2021/11/11 09:00:25;;;;;;;;;67.00;53.75;;;;;;;;5068319;28;45585;-84
2021/11/11 09:02:51;;;;;;;;;71.75;59.75;;;;;;;;5068801;28;47921;-86
2021/11/11 09:05:17;;;;;;;;;69.00;56.75;;;;;;;;5067959;28;45681;-86
2021/11/11 09:07:43;;;;;;;;;32.75;23.00;;;;;;;;5068821;28;45465;-86
2021/11/11 09:10:10;;;;;;;;;70.75;55.25;;;;;;;;5068280;28;45836;-86
2021/11/11 09:12:35;;;;;;;;;71.00;55.25;;;;;;;;5068335;28;47739;-86
2021/11/11 09:15:03;;;;;;;;;67.75;56.50;;;;;;;;5069919;27;45330;-86
2021/11/11 09:17:29;;;;;;;;;75.50;59.00;;;;;;;;5069468;27;45476;-84
2021/11/11 09:19:54;;;;;;;;;71.50;57.75;;;;;;;;5068136;28;45510;-86
2021/11/11 09:22:20;;;;;;;;;68.75;56.50;;;;;;;;5067727;28;47827;-86
2021/11/11 09:24:45;;;;;;;;;79.50;61.25;;;;;;;;5069775;27;45483;-86
2021/11/11 09:27:11;;;;;;;;;71.67;57.00;;;;;;;;5067959;28;45505;-84
2021/11/11 09:29:36;;;;;;;;;73.33;60.00;;;;;;;;5069502;27;45635;-85
2021/11/11 09:32:01;;;;;;;;;68.00;53.00;;;;;;;;5069416;28;45689;-85
2021/11/11 09:34:27;;;;;;;;;74.00;56.50;;;;;;;;5080542;27;45785;-85
2021/11/11 09:36:52;;;;;;;;;77.00;62.33;;;;;;;;5090506;27;45400;-86
2021/11/11 09:39:17;;;;;;;;;72.00;58.33;;;;;;;;5088089;27;45715;-86
2021/11/11 09:41:43;;;;;;;;;73.67;59.67;;;;;;;;5088338;27;47390;-85
2021/11/11 09:44:09;;;;;;;;;74.75;59.25;;;;;;;;5088221;27;45338;-84
2021/11/11 09:46:34;;;;;;;;;78.00;61.00;;;;;;;;5088152;27;45588;-86
2021/11/11 09:49:00;;;;;;;;;82.67;63.33;;;;;;;;5089318;27;45467;-85
2021/11/11 09:51:25;;;;;;;;;79.50;61.50;;;;;;;;5087595;27;47188;-86
2021/11/11 09:59:21;;;;;;;;;73.00;59.25;;;;;;;;5089698;27;45508;-86
2021/11/11 10:01:48;;;;;;;;;75.75;59.50;;;;;;;;5088859;27;47010;-86
2021/11/11 10:04:14;;;;;;;;;76.25;59.25;;;;;;;;5087525;27;45648;-86
2021/11/11 10:06:40;;;;;;;;;83.00;64.00;;;;;;;;5088235;27;45473;-85
2021/11/11 10:09:26;;;;;;;;;78.00;60.25;;;;;;;;5087732;27;45696;-86
2021/11/11 10:11:54;;;;;;;;;81.75;62.50;;;;;;;;5091044;27;47070;-86
2021/11/11 10:14:19;;;;;;;;;89.25;68.50;;;;;;;;5092956;27;45520;-86
2021/11/11 10:16:55;;;;;;;;;79.67;62.33;;;;;;;;5093110;27;45515;-85
2021/11/11 10:19:21;;;;;;;;;81.75;65.75;;;;;;;;5092503;27;45403;-86
2021/11/11 10:21:51;;;;;;;;;86.25;67.25;;;;;;;;5091962;27;48263;-86
2021/11/11 10:24:23;;;;;;;;;83.00;65.00;;;;;;;;5091047;27;45766;-85
2021/11/11 10:26:52;;;;;;;;;86.00;67.75;;;;;;;;5091800;27;45559;-86
2021/11/11 10:29:19;;;;;;;;;83.50;64.00;;;;;;;;5091387;27;45565;-85
2021/11/11 10:31:49;;;;;;;;;87.25;67.00;;;;;;;;5093306;27;46110;-86
2021/11/11 10:34:15;;;;;;;;;91.00;70.75;;;;;;;;5079081;27;45699;-87
2021/11/11 10:36:41;;;;;;;;;92.50;72.75;;;;;;;;5072996;27;45749;-86
2021/11/11 10:39:11;;;;;;;;;84.75;65.75;;;;;;;;5070612;28;45527;-86
2021/11/11 10:41:37;;;;;;;;;85.00;63.75;;;;;;;;5070841;28;47504;-86
2021/11/11 10:44:16;;;;;;;;;79.50;64.00;;;;;;;;5070263;28;45637;-84
2021/11/11 10:47:00;;;;;;;;;81.25;63.75;;;;;;;;5070336;28;45533;-85
2021/11/11 10:49:27;;;;;;;;;77.25;58.50;;;;;;;;5071571;27;45440;-86
2021/11/11 10:51:53;;;;;;;;;86.25;66.00;;;;;;;;5071847;27;46756;-86
2021/11/11 10:54:18;;;;;;;;;83.75;65.75;;;;;;;;5070186;28;45514;-86
2021/11/11 10:56:48;;;;;;;;;84.33;65.67;;;;;;;;5072350;27;45692;-86
2021/11/11 10:59:17;;;;;;;;;80.50;64.50;;;;;;;;5070290;28;45588;-86
2021/11/11 11:01:43;;;;;;;;;82.75;64.75;;;;;;;;5070344;28;47336;-85
2021/11/11 11:04:27;;;;;;;;;88.50;71.25;;;;;;;;5071459;27;45597;-84
2021/11/11 11:07:10;;;;;;;;;83.75;65.75;;;;;;;;5070474;28;45446;-85
2021/11/11 11:09:36;;;;;;;;;89.00;69.75;;;;;;;;5069957;28;45700;-86
2021/11/11 11:12:01;;;;;;;;;84.00;66.67;;;;;;;;5070427;28;47226;-86
2021/11/11 11:14:26;;;;;;;;;86.67;67.67;;;;;;;;5069877;28;45522;-86
2021/11/11 11:16:52;;;;;;;;;84.50;64.75;;;;;;;;5071461;27;45952;-85
2021/11/11 11:19:18;;;;;;;;;83.67;63.33;;;;;;;;5069442;28;45546;-86
2021/11/11 11:21:45;;;;;;;;;78.50;62.50;;;;;;;;5069512;28;48226;-86
2021/11/11 11:24:18;;;;;;;;;79.50;62.50;;;;;;;;5071336;28;45397;-86
2021/11/11 11:26:48;;;;;;;;;85.75;64.25;;;;;;;;5071499;27;45784;-86
2021/11/11 11:31:47;;;;;;;;;80.00;64.25;;;;;;;;5071257;27;45918;-85
2021/11/11 11:34:20;;;;;;;;;81.00;63.00;;;;;;;;5082074;27;45865;-85
2021/11/11 11:36:49;;;;;;;;;78.50;62.50;;;;;;;;5091814;27;45488;-86
2021/11/11 11:39:21;;;;;;;;;83.75;64.00;;;;;;;;5091196;27;45440;-85
2021/11/11 11:41:46;;;;;;;;;75.75;59.00;;;;;;;;5090505;27;48074;-85
2021/11/11 11:44:16;;;;;;;;;86.33;66.33;;;;;;;;5090982;27;45489;-86
2021/11/11 11:46:42;;;;;;;;;81.75;63.00;;;;;;;;5089865;27;45548;-86
2021/11/11 11:49:08;;;;;;;;;81.00;62.50;;;;;;;;5089399;27;45782;-86
2021/11/11 11:51:35;;;;;;;;;79.00;60.50;;;;;;;;5091214;27;46147;-86
2021/11/11 11:54:22;;;;;;;;;76.25;59.50;;;;;;;;5089397;27;45847;-85
2021/11/11 11:56:53;;;;;;;;;81.25;62.00;;;;;;;;5091699;27;45574;-86
2021/11/11 11:59:20;;;;;;;;;83.75;63.50;;;;;;;;5089727;27;45680;-85
2021/11/11 12:01:58;;;;;;;;;79.25;62.50;;;;;;;;5089727;27;47219;-86
2021/11/11 12:09:44;;;;;;;;;76.50;59.00;;;;;;;;5090960;27;45380;-86
2021/11/11 12:15:08;;;;;;;;;75.00;58.25;;;;;;;;5091678;27;45689;-88
2021/11/11 12:39:29;;;;;;;;;69.00;53.75;;;;;;;;5069951;28;45375;-86
2021/11/11 12:41:58;;;;;;;;;68.00;54.75;;;;;;;;5070557;27;45738;-86
2021/11/11 12:44:23;;;;;;;;;71.50;55.50;;;;;;;;5068381;28;46183;-86
2021/11/11 12:46:48;;;;;;;;;76.75;58.25;;;;;;;;5068753;28;45357;-86
2021/11/11 12:49:29;;;;;;;;;69.00;54.67;;;;;;;;5069217;27;45325;-86
2021/11/11 12:52:13;;;;;;;;;79.00;58.50;;;;;;;;5068724;28;45743;-86
2021/11/11 12:54:43;;;;;;;;;71.00;55.00;;;;;;;;5068591;28;47924;-86
2021/11/11 12:57:09;;;;;;;;;74.25;59.25;;;;;;;;5069435;27;45859;-86
2021/11/11 12:59:35;;;;;;;;;71.50;55.50;;;;;;;;5069693;27;46010;-86
2021/11/11 13:02:10;;;;;;;;;70.50;55.25;;;;;;;;5070087;27;45911;-86
2021/11/11 13:04:49;;;;;;;;;68.75;53.00;;;;;;;;5069460;27;46387;-86
2021/11/11 13:07:24;;;;;;;;;72.00;56.50;;;;;;;;5069070;27;45843;-86
2021/11/11 13:09:59;;;;;;;;;67.75;52.75;;;;;;;;5070406;28;45575;-86
2021/11/11 13:12:25;;;;;;;;;67.75;53.50;;;;;;;;5070244;27;45445;-86
2021/11/11 13:14:56;;;;;;;;;63.50;51.25;;;;;;;;5068084;28;47540;-86
2021/11/11 13:17:24;;;;;;;;;68.00;52.50;;;;;;;;5067913;28;45666;-87
2021/11/11 13:19:57;;;;;;;;;67.25;53.50;;;;;;;;5068534;28;45501;-87
2021/11/11 13:22:38;;;;;;;;;56.00;46.25;;;;;;;;5069599;28;45528;-86
2021/11/11 16:21:41;;;;;;;;;65.50;52.00;;;;;;;;5090406;27;45763;-85
2021/11/11 16:26:37;;;;;;;;;74.75;58.50;;;;;;;;5090984;27;45526;-86
2021/11/11 16:29:03;;;;;;;;;79.50;61.25;;;;;;;;5091144;27;45424;-85
2021/11/11 16:31:29;;;;;;;;;76.50;61.25;;;;;;;;5089353;27;47361;-86
2021/11/11 16:33:57;;;;;;;;;73.50;59.25;;;;;;;;5080765;27;45772;-86
2021/11/11 16:36:22;;;;;;;;;77.00;60.75;;;;;;;;5070028;28;45525;-86
2021/11/11 16:38:49;;;;;;;;;78.00;61.25;;;;;;;;5069208;28;45527;-85
2021/11/11 16:41:15;;;;;;;;;83.00;67.00;;;;;;;;5070227;27;45679;-84
2021/11/11 16:43:41;;;;;;;;;82.00;62.50;;;;;;;;5069367;28;45729;-86
2021/11/11 16:46:07;;;;;;;;;81.00;64.25;;;;;;;;5070162;28;45392;-85
2021/11/11 16:48:36;;;;;;;;;79.00;60.00;;;;;;;;5069889;27;45446;-86
2021/11/11 16:51:02;;;;;;;;;78.75;61.00;;;;;;;;5069760;27;46025;-86
2021/11/11 16:53:27;;;;;;;;;74.25;58.50;;;;;;;;5068538;28;45738;-86
2021/11/11 16:55:53;;;;;;;;;78.75;61.25;;;;;;;;5070402;27;45475;-85
2021/11/11 16:58:18;;;;;;;;;79.25;60.25;;;;;;;;5070059;28;45522;-86
2021/11/11 17:00:43;;;;;;;;;74.00;56.00;;;;;;;;5070188;28;45498;-86
2021/11/11 17:03:10;;;;;;;;;76.33;60.67;;;;;;;;5069412;28;45476;-86
2021/11/11 17:05:36;;;;;;;;;80.50;61.75;;;;;;;;5068016;28;45513;-86
2021/11/11 17:08:01;;;;;;;;;81.00;63.67;;;;;;;;5070192;28;45358;-86
2021/11/11 17:10:26;;;;;;;;;80.50;62.50;;;;;;;;5071499;27;46194;-86
2021/11/11 17:12:52;;;;;;;;;79.33;61.00;;;;;;;;5070093;27;45723;-86
2021/11/11 17:15:20;;;;;;;;;70.50;57.50;;;;;;;;5070718;27;45347;-85
2021/11/11 17:17:47;;;;;;;;;71.50;56.00;;;;;;;;5070217;27;45499;-86
2021/11/11 17:20:17;;;;;;;;;68.00;55.75;;;;;;;;5072050;27;45412;-85
2021/11/11 17:22:47;;;;;;;;;74.00;57.25;;;;;;;;5073716;27;45517;-86
2021/11/11 17:30:34;;;;;;;;;72.25;56.25;;;;;;;;5072991;28;45398;-86
2021/11/11 17:32:59;;;;;;;;;66.00;53.67;;;;;;;;5072341;27;45444;-86
2021/11/11 17:35:24;;;;;;;;;67.25;55.25;;;;;;;;5091657;27;45515;-86
2021/11/11 17:37:50;;;;;;;;;71.00;53.67;;;;;;;;5092508;27;45637;-86
2021/11/11 17:40:18;;;;;;;;;74.25;56.50;;;;;;;;5091737;27;45504;-86
2021/11/11 17:42:44;;;;;;;;;78.50;62.25;;;;;;;;5093419;27;45716;-86
2021/11/11 17:45:11;;;;;;;;;76.75;59.00;;;;;;;;5091711;27;45433;-86
2021/11/11 17:47:36;;;;;;;;;79.75;62.50;;;;;;;;5091399;27;45545;-85
2021/11/11 17:50:06;;;;;;;;;82.00;63.33;;;;;;;;5091116;27;48074;-86
2021/11/11 17:52:34;;;;;;;;;84.25;67.00;;;;;;;;5091719;27;45609;-86
2021/11/11 17:55:02;;;;;;;;;89.00;73.00;;;;;;;;5091924;27;45403;-86
2021/11/11 17:57:30;;;;;;;;;85.75;69.25;;;;;;;;5091349;27;45564;-86
2021/11/11 17:59:56;;;;;;;;;82.00;62.75;;;;;;;;5092099;27;47359;-86
2021/11/11 18:02:28;;;;;;;;;84.75;67.50;;;;;;;;5092437;27;45578;-86
2021/11/11 18:04:57;;;;;;;;;89.00;68.75;;;;;;;;5092064;27;45588;-85
2021/11/11 18:07:24;;;;;;;;;84.25;67.00;;;;;;;;5091400;27;45293;-86
2021/11/11 18:09:56;;;;;;;;;88.25;68.25;;;;;;;;5092971;27;46892;-86
2021/11/11 18:12:25;;;;;;;;;90.00;75.50;;;;;;;;5091109;27;45775;-85
2021/11/11 18:14:56;;;;;;;;;88.50;71.00;;;;;;;;5092048;27;45500;-86
2021/11/11 18:17:23;;;;;;;;;93.75;72.25;;;;;;;;5091101;27;45359;-86